Search for airport 
image banner adimage banner adimage banner ad
image banner ad

6CL2 - White Pine

Located in Eagleville, United States

ICAO - 6CL2, IATA -

Data provided by Airmate  

General information

Coordinates: N41°19'50" W120°5'51"
Elevation is 4550 feet MSL.
Magnetic variation is 17° East
View others Airports in California

Operational data

Special qualification required
Current time UTC:
Current local time:
Weather at : KAAT - Alturas Muni ( 43 km )
METAR: KAAT 210955Z AUTO 00000KT 10SM CLR 13/01 A3004 RMK AO2 SLP120 T01280011
View NOTAMs / SUP AIP / TFR affecting this airport [VIEW]
Communications frequencies: [VIEW]

Runways:

Airport contact information

Address: Eagleville United States

Satellite view of 6CL2